Pagrindinis puslapis
METAR-TAF:

METAR-TAF

Oro uostai :

Juliaca, Peru

platuma: 15-29S, ilguma: 070-09W, Aukštis: 3826 m

Dabartinis oras

Ataskaita buvo paskelbta 20 minutes, ne 14:00 UTC
Vėjas 3 kt iš Pietų/Pietvakarių, svyruoja nuo Pietų/Pietryčių ir Vakarų/Šiaurės Vakarų
Temperatūra 9°C
Drėgmė 31%
Slėgis 1040 hPa
Matomumas 10 km arba daugiau
nėra debesų žemiau 1500 m ir nėra kamuolinių lietaus debesų

METAR: SPJL 251400Z 20003KT 150V300 CAVOK 09/M07 Q1040 RMK BIRD HAZARD RWY 12/30 PP000

Laikas: 09:20 (14:20 UTC)

Prognozė

Ataskaita buvo paskelbta 2 valandos ir 56 minutes, ne 11:24 UTC
Prognozė galioja nuo 25 metu 12 UTC su 26 metu 12 UTC
Vėjas 6 kt iš Šiaurės Rytų
Matomumas 10 km arba daugiau
Mažai debesys ne aukštis 2000 ft

TAF: SPJL 251124Z 2512/2612 05006KT 9999 FEW020 TX18/2519Z TNM04/2611Z

Orai ataskaitas ir orų prognozės (METAR, TAF).

turimą stotys yra geltonos ir raudonos taškus žemėlapyje.

Perkelti pele per norėdami pamatyti stoties vardą.

Tada spustelėkite, norėdami matyti oro stebėjimo ir prognozės.

Norėdami pakeisti žemėlapį: spustelėkite ant žalios mygtukų su juodo kryžiaus žemyn,; žalią mygtuką su brūkšneliu, jei norite nutolinti; arba žalių rodyklių gretimoms žemėlapius.


METAR-TAF: